Buoy 16555

sailwx.info

Track history (hours):
 
Tides and Currents Weather Stations Pressure Air Temp Water Temp Dewpoint Dewpoint Depression Visibility Wind Speed Wind Dir Waves Ship Positions

Drifting buoy 16555

Last reported at 2016-Dec-03 04:00 UTC. Time now 2016-Dec-03 09:35 UTC.
Position S 32°26' E 090°16'.

Barometer 1022.0 mb
Water temperature 19.6 ° C

Date/timePositionNaut miles runAvg speedWind from/ knotsBaromVisibWave heightAir tempDewpointWater temp
2016-Dec-03 04:00S 32°26' E 090°16'1 0.5 1022.0 19.6
2016-Dec-03 03:00S 32°26' E 090°17'0 0.0 1021.4 19.6
2016-Dec-03 02:00S 32°26' E 090°17'1 0.6 1021.2 19.6
2016-Dec-03 01:00S 32°26' E 090°17'1 0.5 1020.8 19.5
2016-Dec-03 00:00S 32°26' E 090°17'1 0.8 1019.9 19.5
2016-Dec-02 23:00S 32°27' E 090°17'1 0.5 1019.3 19.6
2016-Dec-02 22:00S 32°27' E 090°16'0 0.0 1018.5 19.6
2016-Dec-02 21:00S 32°27' E 090°16'1 0.5 1018.3 19.6
2016-Dec-02 20:00S 32°27' E 090°16'1 0.3 1018.5 19.6
2016-Dec-02 17:00S 32°27' E 090°14'1 0.5 1019.2 19.6
2016-Dec-02 16:00S 32°27' E 090°15'1 0.4 1018.9 19.7
2016-Dec-02 14:00S 32°26' E 090°14'0 0.0 1017.9 19.7
2016-Dec-02 13:00S 32°26' E 090°14'0 0.0 1017.4 19.7
2016-Dec-02 12:00S 32°26' E 090°14'0 0.0 1017.0 19.7
2016-Dec-02 11:00S 32°26' E 090°14'1 0.8 1016.5 19.7
2016-Dec-02 10:00S 32°27' E 090°14'0 0.0 1016.7 19.7
2016-Dec-02 09:00S 32°27' E 090°14'0 0.0 1016.8 19.7
2016-Dec-02 08:00S 32°27' E 090°14'0 0.0 1017.0 19.7
2016-Dec-02 04:00S 32°27' E 090°14'0 0.0 1017.4 19.6
2016-Dec-02 03:00S 32°27' E 090°14'0 0.0 1017.4 19.5
2016-Dec-02 02:00S 32°27' E 090°14'0 0.0 1017.3 19.5
2016-Dec-02 01:00S 32°27' E 090°14'1 0.6 1017.0 19.5
2016-Dec-02 00:00S 32°28' E 090°14'1 0.8 1016.7 19.5
2016-Dec-01 23:00S 32°28' E 090°13'1 0.5 1016.3 19.5
2016-Dec-01 21:00S 32°28' E 090°12'0 0.0 1015.9 19.5
2016-Dec-01 20:00S 32°28' E 090°12'1 0.3 1016.3 19.5
2016-Dec-01 16:00S 32°28' E 090°11'1 0.5 1017.4 19.5
2016-Dec-01 15:00S 32°28' E 090°10'1 0.6 1017.6 19.6
2016-Dec-01 13:00S 32°26' E 090°10'0 0.0 1017.2 19.6
2016-Dec-01 12:00S 32°26' E 090°10'1 0.6 1016.9 19.6
2016-Dec-01 11:00S 32°27' E 090°10'0 0.0 1016.8 19.7
2016-Dec-01 10:00S 32°27' E 090°10'2 0.3 1017.1 19.6
2016-Dec-01 01:00S 32°28' E 090°08'1 0.5 1019.6 19.3
2016-Dec-01 00:00S 32°28' E 090°07'0 0.0 1019.7 19.3
2016-Nov-30 23:00S 32°28' E 090°07'0 0.0 1019.8 19.4
2016-Nov-30 22:00S 32°28' E 090°07'1 1.2 1019.6 19.4
2016-Nov-30 21:00S 32°28' E 090°06'0 0.0 1019.8 19.4
2016-Nov-30 20:00S 32°28' E 090°06'1 0.3 1020.1 19.4
2016-Nov-30 16:00S 32°26' E 090°05'1 0.5 1022.1 19.5
2016-Nov-30 15:00S 32°26' E 090°06'1 0.4 1022.2 19.5
2016-Nov-30 13:00S 32°26' E 090°07'0 0.0 1021.6 19.5
2016-Nov-30 11:00S 32°26' E 090°07'0 0.0 1021.2 19.7
2016-Nov-30 10:00S 32°26' E 090°07'0 0.0 1021.4 19.8
2016-Nov-30 09:00S 32°26' E 090°07'3 0.3 1021.9 19.7
2016-Nov-30 01:00S 32°26' E 090°04'0 0.0 1023.4 19.1
2016-Nov-30 00:00S 32°26' E 090°04'1 0.3 1023.0 19.1
2016-Nov-29 21:00S 32°26' E 090°03'1 0.3 1022.1 19.1
2016-Nov-29 17:00S 32°25' E 090°02'1 0.6 1023.6 19.2
2016-Nov-29 16:00S 32°25' E 090°02'0 0.0 1023.7 19.2
2016-Nov-29 15:00S 32°25' E 090°02'1 0.2 1024.0 19.2
2016-Nov-29 12:00S 32°24' E 090°02'0 0.0 1023.0 19.4
2016-Nov-29 11:00S 32°24' E 090°02'2 2.4 1022.6 19.4
2016-Nov-29 10:00S 32°26' E 090°00'1 0.1 1022.6 19.4
2016-Nov-29 04:00S 32°26' E 089°59'1 0.8 1024.5 19.0
2016-Nov-29 03:00S 32°26' E 089°59'2 0.8 1024.8 18.9
2016-Nov-29 01:00S 32°26' E 089°57'0 0.0 1024.4 18.9
2016-Nov-29 00:00S 32°26' E 089°57'0 0.0 1024.3 18.9
2016-Nov-28 23:00S 32°26' E 089°57'2 0.4 1024.2 18.9
2016-Nov-28 19:00S 32°25' E 089°56'1 0.4 1024.4 19.1
2016-Nov-28 17:00S 32°24' E 089°55'1 1.2 1024.9 19.7
2016-Nov-28 16:00S 32°25' E 089°54'1 0.3 1025.0 20.0
2016-Nov-28 14:00S 32°25' E 089°55'1 1.3 1024.5 20.4
2016-Nov-28 13:00S 32°23' E 089°54'1 0.8 1024.0 21.0
2016-Nov-28 12:00S 32°24' E 089°55'0 0.0 1023.6 21.1
2016-Nov-28 11:00S 32°24' E 089°55'0 0.0 1023.4 21.2
2016-Nov-28 10:00S 32°24' E 089°55'0 0.0 1023.5 21.7
2016-Nov-28 09:00S 32°24' E 089°55'2 1.0 1024.0 21.6
2016-Nov-28 07:00S 32°25' E 089°53'2 1.6 1024.4 20.3
2016-Nov-28 06:00S 32°26' E 089°51'1 0.4 1024.7 20.2
2016-Nov-28 03:00S 32°26' E 089°50'2 0.8 1025.4 19.3
2016-Nov-28 01:00S 32°26' E 089°48'0 0.0 1024.9 18.7
2016-Nov-28 00:00S 32°26' E 089°48'0 0.0 1024.5 18.7
2016-Nov-27 23:00S 32°26' E 089°48'2 0.8 1023.9 18.8
2016-Nov-27 21:00S 32°25' E 089°46'1 0.3 1023.8 18.8
2016-Nov-27 19:00S 32°25' E 089°46'1 1.0 1024.3 19.0
2016-Nov-27 18:00S 32°25' E 089°45'0 0.0 1024.6 19.3
2016-Nov-27 16:00S 32°25' E 089°45'1 0.6 1025.1 19.6
2016-Nov-27 15:00S 32°25' E 089°45'0 0.0 1025.0 19.8
2016-Nov-27 14:00S 32°25' E 089°45'0 0.0 1024.7 20.3
2016-Nov-27 13:00S 32°25' E 089°45'0 0.0 1024.1 20.8
2016-Nov-27 12:00S 32°25' E 089°45'0 0.0 1023.8 21.4
2016-Nov-27 11:00S 32°25' E 089°45'1 0.6 1023.5 21.4
2016-Nov-27 10:00S 32°26' E 089°45'1 0.5 1023.6 22.3
2016-Nov-27 09:00S 32°26' E 089°44'4 0.6 1024.0 22.1
2016-Nov-27 03:00S 32°27' E 089°40'2 1.0 1025.3 18.6
2016-Nov-27 01:00S 32°27' E 089°38'2 0.7 1025.4 18.5
2016-Nov-26 22:00S 32°25' E 089°37'1 0.5 1023.7 18.5
2016-Nov-26 21:00S 32°25' E 089°36'1 0.3 1024.1 18.5
2016-Nov-26 19:00S 32°25' E 089°36'1 0.5 1024.8 18.5
2016-Nov-26 18:00S 32°25' E 089°35'1 0.3 1024.9 18.5
2016-Nov-26 16:00S 32°25' E 089°36'1 0.6 1025.8 18.6
2016-Nov-26 15:00S 32°25' E 089°36'2 1.5 1026.0 18.6
2016-Nov-26 14:00S 32°25' E 089°34'0 0.0 1025.5 18.6
2016-Nov-26 12:00S 32°25' E 089°34'1 0.3 1025.3 18.6
2016-Nov-26 10:00S 32°25' E 089°34'1 0.5 1024.8 18.7
2016-Nov-26 08:00S 32°25' E 089°32'3 0.8 1024.5 18.6
2016-Nov-26 04:00S 32°25' E 089°29'1 0.5 1025.7 18.5
2016-Nov-26 03:00S 32°25' E 089°28'1 0.5 1025.5 18.5
2016-Nov-26 01:00S 32°25' E 089°27'1 1.3 1024.8 18.4
2016-Nov-26 00:00S 32°24' E 089°26'1 0.8 1024.0 18.4
2016-Nov-25 23:00S 32°23' E 089°26'1 0.6 1023.5 18.5
2016-Nov-25 21:00S 32°22' E 089°26'0 0.0 1022.6 18.5
2016-Nov-25 20:00S 32°22' E 089°26'1 0.1 1022.2 18.5
2016-Nov-25 16:00S 32°22' E 089°26'1 0.6 1022.3 18.7
2016-Nov-25 15:00S 32°23' E 089°26'1 0.8 1021.9 18.8
2016-Nov-25 14:00S 32°22' E 089°27'1 1.3 1021.4 18.9
2016-Nov-25 13:00S 32°23' E 089°26'1 1.2 1020.8 18.9
2016-Nov-25 12:00S 32°24' E 089°25'1 0.5 1020.3 19.0
2016-Nov-25 11:00S 32°24' E 089°26'2 0.8 1019.3 19.1
2016-Nov-25 09:00S 32°25' E 089°25'0 0.0 1018.8 19.2
2016-Nov-25 08:00S 32°25' E 089°25'2 0.5 1018.4 19.3
2016-Nov-25 04:00S 32°25' E 089°22'2 0.5 1018.8 19.3
2016-Nov-25 01:00S 32°24' E 089°20'0 0.0 1019.5 19.3
2016-Nov-25 00:00S 32°24' E 089°20'1 0.5 1019.1 19.3
2016-Nov-24 23:00S 32°24' E 089°20'2 0.8 1018.9 19.3
2016-Nov-24 21:00S 32°23' E 089°18'1 0.3 1019.0 19.3
2016-Nov-24 17:00S 32°22' E 089°17'1 0.5 1021.1 19.4
2016-Nov-24 16:00S 32°22' E 089°17'3 1.4 1021.5 19.4
2016-Nov-24 14:00S 32°21' E 089°14'0 0.0 1021.7 19.5
2016-Nov-24 13:00S 32°21' E 089°14'0 0.0 1021.8 19.5
2016-Nov-24 11:00S 32°21' E 089°14'0 0.0 1022.0 19.6
2016-Nov-24 10:00S 32°21' E 089°14'1 0.6 1022.4 19.6
2016-Nov-24 09:00S 32°20' E 089°14'0 0.0 1023.0 19.5
2016-Nov-24 08:00S 32°20' E 089°14'3 0.6 1023.4 19.7
2016-Nov-24 03:00S 32°19' E 089°11'1 0.6 1025.4 19.2
2016-Nov-24 01:00S 32°18' E 089°11'1 1.2 1025.6 19.2
2016-Nov-24 00:00S 32°17' E 089°10'0 0.0 1025.4 19.1
2016-Nov-23 22:00S 32°17' E 089°10'0 0.0 1025.0 19.1
2016-Nov-23 21:00S 32°17' E 089°10'1 1.2 1025.1 19.2
2016-Nov-23 20:00S 32°17' E 089°08'2 0.4 1025.2 19.2
2016-Nov-23 16:00S 32°16' E 089°07'1 0.5 1026.8 19.4
2016-Nov-23 15:00S 32°16' E 089°06'2 2.1 1027.1 19.5
2016-Nov-23 14:00S 32°14' E 089°05'0 0.0 1026.9 19.4
2016-Nov-23 13:00S 32°14' E 089°05'0 0.0 1026.9 19.4
2016-Nov-23 12:00S 32°14' E 089°05'1 0.6 1026.8 19.5
2016-Nov-23 10:00S 32°13' E 089°05'0 0.0 1026.4 19.5
2016-Nov-23 09:00S 32°13' E 089°05'2 0.5 1026.6 19.5
2016-Nov-23 04:00S 32°12' E 089°02'   1027.9 19.1
Track history (hours):
 
Tides and Currents Weather Stations Pressure Air Temp Water Temp Dewpoint Dewpoint Depression Visibility Wind Speed Wind Dir Waves Ship Positions

Drifting buoy 16555

Last reported at 2016-Dec-03 04:00 UTC. Time now 2016-Dec-03 09:35 UTC.
Position S 32°26' E 090°16'.

Barometer 1022.0 mb
Water temperature 19.6 ° C

Date/timePositionNaut miles runAvg speedWind from/ knotsBaromVisibWave heightAir tempDewpointWater temp
2016-Dec-03 04:00S 32°26' E 090°16'1 0.5 1022.0 19.6
2016-Dec-03 03:00S 32°26' E 090°17'0 0.0 1021.4 19.6
2016-Dec-03 02:00S 32°26' E 090°17'1 0.6 1021.2 19.6
2016-Dec-03 01:00S 32°26' E 090°17'1 0.5 1020.8 19.5
2016-Dec-03 00:00S 32°26' E 090°17'1 0.8 1019.9 19.5
2016-Dec-02 23:00S 32°27' E 090°17'1 0.5 1019.3 19.6
2016-Dec-02 22:00S 32°27' E 090°16'0 0.0 1018.5 19.6
2016-Dec-02 21:00S 32°27' E 090°16'1 0.5 1018.3 19.6
2016-Dec-02 20:00S 32°27' E 090°16'1 0.3 1018.5 19.6
2016-Dec-02 17:00S 32°27' E 090°14'1 0.5 1019.2 19.6
2016-Dec-02 16:00S 32°27' E 090°15'1 0.4 1018.9 19.7
2016-Dec-02 14:00S 32°26' E 090°14'0 0.0 1017.9 19.7
2016-Dec-02 13:00S 32°26' E 090°14'0 0.0 1017.4 19.7
2016-Dec-02 12:00S 32°26' E 090°14'0 0.0 1017.0 19.7
2016-Dec-02 11:00S 32°26' E 090°14'1 0.8 1016.5 19.7
2016-Dec-02 10:00S 32°27' E 090°14'0 0.0 1016.7 19.7
2016-Dec-02 09:00S 32°27' E 090°14'0 0.0 1016.8 19.7
2016-Dec-02 08:00S 32°27' E 090°14'0 0.0 1017.0 19.7
2016-Dec-02 04:00S 32°27' E 090°14'0 0.0 1017.4 19.6
2016-Dec-02 03:00S 32°27' E 090°14'0 0.0 1017.4 19.5
2016-Dec-02 02:00S 32°27' E 090°14'0 0.0 1017.3 19.5
2016-Dec-02 01:00S 32°27' E 090°14'1 0.6 1017.0 19.5
2016-Dec-02 00:00S 32°28' E 090°14'1 0.8 1016.7 19.5
2016-Dec-01 23:00S 32°28' E 090°13'1 0.5 1016.3 19.5
2016-Dec-01 21:00S 32°28' E 090°12'0 0.0 1015.9 19.5
2016-Dec-01 20:00S 32°28' E 090°12'1 0.3 1016.3 19.5
2016-Dec-01 16:00S 32°28' E 090°11'1 0.5 1017.4 19.5
2016-Dec-01 15:00S 32°28' E 090°10'1 0.6 1017.6 19.6
2016-Dec-01 13:00S 32°26' E 090°10'0 0.0 1017.2 19.6
2016-Dec-01 12:00S 32°26' E 090°10'1 0.6 1016.9 19.6
2016-Dec-01 11:00S 32°27' E 090°10'0 0.0 1016.8 19.7
2016-Dec-01 10:00S 32°27' E 090°10'2 0.3 1017.1 19.6
2016-Dec-01 01:00S 32°28' E 090°08'1 0.5 1019.6 19.3
2016-Dec-01 00:00S 32°28' E 090°07'0 0.0 1019.7 19.3
2016-Nov-30 23:00S 32°28' E 090°07'0 0.0 1019.8 19.4
2016-Nov-30 22:00S 32°28' E 090°07'1 1.2 1019.6 19.4
2016-Nov-30 21:00S 32°28' E 090°06'0 0.0 1019.8 19.4
2016-Nov-30 20:00S 32°28' E 090°06'1 0.3 1020.1 19.4
2016-Nov-30 16:00S 32°26' E 090°05'1 0.5 1022.1 19.5
2016-Nov-30 15:00S 32°26' E 090°06'1 0.4 1022.2 19.5
2016-Nov-30 13:00S 32°26' E 090°07'0 0.0 1021.6 19.5
2016-Nov-30 11:00S 32°26' E 090°07'0 0.0 1021.2 19.7
2016-Nov-30 10:00S 32°26' E 090°07'0 0.0 1021.4 19.8
2016-Nov-30 09:00S 32°26' E 090°07'3 0.3 1021.9 19.7
2016-Nov-30 01:00S 32°26' E 090°04'0 0.0 1023.4 19.1
2016-Nov-30 00:00S 32°26' E 090°04'1 0.3 1023.0 19.1
2016-Nov-29 21:00S 32°26' E 090°03'1 0.3 1022.1 19.1
2016-Nov-29 17:00S 32°25' E 090°02'1 0.6 1023.6 19.2
2016-Nov-29 16:00S 32°25' E 090°02'0 0.0 1023.7 19.2
2016-Nov-29 15:00S 32°25' E 090°02'1 0.2 1024.0 19.2
2016-Nov-29 12:00S 32°24' E 090°02'0 0.0 1023.0 19.4
2016-Nov-29 11:00S 32°24' E 090°02'2 2.4 1022.6 19.4
2016-Nov-29 10:00S 32°26' E 090°00'1 0.1 1022.6 19.4
2016-Nov-29 04:00S 32°26' E 089°59'1 0.8 1024.5 19.0
2016-Nov-29 03:00S 32°26' E 089°59'2 0.8 1024.8 18.9
2016-Nov-29 01:00S 32°26' E 089°57'0 0.0 1024.4 18.9
2016-Nov-29 00:00S 32°26' E 089°57'0 0.0 1024.3 18.9
2016-Nov-28 23:00S 32°26' E 089°57'2 0.4 1024.2 18.9
2016-Nov-28 19:00S 32°25' E 089°56'1 0.4 1024.4 19.1
2016-Nov-28 17:00S 32°24' E 089°55'1 1.2 1024.9 19.7
2016-Nov-28 16:00S 32°25' E 089°54'1 0.3 1025.0 20.0
2016-Nov-28 14:00S 32°25' E 089°55'1 1.3 1024.5 20.4
2016-Nov-28 13:00S 32°23' E 089°54'1 0.8 1024.0 21.0
2016-Nov-28 12:00S 32°24' E 089°55'0 0.0 1023.6 21.1
2016-Nov-28 11:00S 32°24' E 089°55'0 0.0 1023.4 21.2
2016-Nov-28 10:00S 32°24' E 089°55'0 0.0 1023.5 21.7
2016-Nov-28 09:00S 32°24' E 089°55'2 1.0 1024.0 21.6
2016-Nov-28 07:00S 32°25' E 089°53'2 1.6 1024.4 20.3
2016-Nov-28 06:00S 32°26' E 089°51'1 0.4 1024.7 20.2
2016-Nov-28 03:00S 32°26' E 089°50'2 0.8 1025.4 19.3
2016-Nov-28 01:00S 32°26' E 089°48'0 0.0 1024.9 18.7
2016-Nov-28 00:00S 32°26' E 089°48'0 0.0 1024.5 18.7
2016-Nov-27 23:00S 32°26' E 089°48'2 0.8 1023.9 18.8
2016-Nov-27 21:00S 32°25' E 089°46'1 0.3 1023.8 18.8
2016-Nov-27 19:00S 32°25' E 089°46'1 1.0 1024.3 19.0
2016-Nov-27 18:00S 32°25' E 089°45'0 0.0 1024.6 19.3
2016-Nov-27 16:00S 32°25' E 089°45'1 0.6 1025.1 19.6
2016-Nov-27 15:00S 32°25' E 089°45'0 0.0 1025.0 19.8
2016-Nov-27 14:00S 32°25' E 089°45'0 0.0 1024.7 20.3
2016-Nov-27 13:00S 32°25' E 089°45'0 0.0 1024.1 20.8
2016-Nov-27 12:00S 32°25' E 089°45'0 0.0 1023.8 21.4
2016-Nov-27 11:00S 32°25' E 089°45'1 0.6 1023.5 21.4
2016-Nov-27 10:00S 32°26' E 089°45'1 0.5 1023.6 22.3
2016-Nov-27 09:00S 32°26' E 089°44'4 0.6 1024.0 22.1
2016-Nov-27 03:00S 32°27' E 089°40'2 1.0 1025.3 18.6
2016-Nov-27 01:00S 32°27' E 089°38'2 0.7 1025.4 18.5
2016-Nov-26 22:00S 32°25' E 089°37'1 0.5 1023.7 18.5
2016-Nov-26 21:00S 32°25' E 089°36'1 0.3 1024.1 18.5
2016-Nov-26 19:00S 32°25' E 089°36'1 0.5 1024.8 18.5
2016-Nov-26 18:00S 32°25' E 089°35'1 0.3 1024.9 18.5
2016-Nov-26 16:00S 32°25' E 089°36'1 0.6 1025.8 18.6
2016-Nov-26 15:00S 32°25' E 089°36'2 1.5 1026.0 18.6
2016-Nov-26 14:00S 32°25' E 089°34'0 0.0 1025.5 18.6
2016-Nov-26 12:00S 32°25' E 089°34'1 0.3 1025.3 18.6
2016-Nov-26 10:00S 32°25' E 089°34'1 0.5 1024.8 18.7
2016-Nov-26 08:00S 32°25' E 089°32'3 0.8 1024.5 18.6
2016-Nov-26 04:00S 32°25' E 089°29'1 0.5 1025.7 18.5
2016-Nov-26 03:00S 32°25' E 089°28'1 0.5 1025.5 18.5
2016-Nov-26 01:00S 32°25' E 089°27'1 1.3 1024.8 18.4
2016-Nov-26 00:00S 32°24' E 089°26'1 0.8 1024.0 18.4
2016-Nov-25 23:00S 32°23' E 089°26'1 0.6 1023.5 18.5
2016-Nov-25 21:00S 32°22' E 089°26'0 0.0 1022.6 18.5
2016-Nov-25 20:00S 32°22' E 089°26'1 0.1 1022.2 18.5
2016-Nov-25 16:00S 32°22' E 089°26'1 0.6 1022.3 18.7
2016-Nov-25 15:00S 32°23' E 089°26'1 0.8 1021.9 18.8
2016-Nov-25 14:00S 32°22' E 089°27'1 1.3 1021.4 18.9
2016-Nov-25 13:00S 32°23' E 089°26'1 1.2 1020.8 18.9
2016-Nov-25 12:00S 32°24' E 089°25'1 0.5 1020.3 19.0
2016-Nov-25 11:00S 32°24' E 089°26'2 0.8 1019.3 19.1
2016-Nov-25 09:00S 32°25' E 089°25'0 0.0 1018.8 19.2
2016-Nov-25 08:00S 32°25' E 089°25'2 0.5 1018.4 19.3
2016-Nov-25 04:00S 32°25' E 089°22'2 0.5 1018.8 19.3
2016-Nov-25 01:00S 32°24' E 089°20'0 0.0 1019.5 19.3
2016-Nov-25 00:00S 32°24' E 089°20'1 0.5 1019.1 19.3
2016-Nov-24 23:00S 32°24' E 089°20'2 0.8 1018.9 19.3
2016-Nov-24 21:00S 32°23' E 089°18'1 0.3 1019.0 19.3
2016-Nov-24 17:00S 32°22' E 089°17'1 0.5 1021.1 19.4
2016-Nov-24 16:00S 32°22' E 089°17'3 1.4 1021.5 19.4
2016-Nov-24 14:00S 32°21' E 089°14'0 0.0 1021.7 19.5
2016-Nov-24 13:00S 32°21' E 089°14'0 0.0 1021.8 19.5
2016-Nov-24 11:00S 32°21' E 089°14'0 0.0 1022.0 19.6
2016-Nov-24 10:00S 32°21' E 089°14'1 0.6 1022.4 19.6
2016-Nov-24 09:00S 32°20' E 089°14'0 0.0 1023.0 19.5
2016-Nov-24 08:00S 32°20' E 089°14'3 0.6 1023.4 19.7
2016-Nov-24 03:00S 32°19' E 089°11'1 0.6 1025.4 19.2
2016-Nov-24 01:00S 32°18' E 089°11'1 1.2 1025.6 19.2
2016-Nov-24 00:00S 32°17' E 089°10'0 0.0 1025.4 19.1
2016-Nov-23 22:00S 32°17' E 089°10'0 0.0 1025.0 19.1
2016-Nov-23 21:00S 32°17' E 089°10'1 1.2 1025.1 19.2
2016-Nov-23 20:00S 32°17' E 089°08'2 0.4 1025.2 19.2
2016-Nov-23 16:00S 32°16' E 089°07'1 0.5 1026.8 19.4
2016-Nov-23 15:00S 32°16' E 089°06'2 2.1 1027.1 19.5
2016-Nov-23 14:00S 32°14' E 089°05'0 0.0 1026.9 19.4
2016-Nov-23 13:00S 32°14' E 089°05'0 0.0 1026.9 19.4
2016-Nov-23 12:00S 32°14' E 089°05'1 0.6 1026.8 19.5
2016-Nov-23 10:00S 32°13' E 089°05'0 0.0 1026.4 19.5
2016-Nov-23 09:00S 32°13' E 089°05'2 0.5 1026.6 19.5
2016-Nov-23 04:00S 32°12' E 089°02'   1027.9 19.1

Dump ship's entire track history